Huinan, China
Current Conditions -  °F | °C
As of 7:00 AM on Tuesday 21 Oct 2014 (Local Time) from ZSPD Reporting Station
Clear Clear  
Wind Chill: 68°   Ceiling: Unl
Heat Index: 68°   Visibility: 4mi
Dew Point: 66°   Wind: 4mph
Humidity: 94%   Direction: 190°S
Pressure: 29.88"   Gusts: NA
Location:  31.05°N, 121.75°E
Report Text: ZSPD 202300Z 19002MPS 7000 NSC 20/19 Q1012 NOSIG
Loading
Personal Weather Stations






























Interactive Weather Map
Tropical Storm Tracking
New forecast layout! Learn more

10-Day Weather Forecast

Advertisements
Track Severe Weather on mobile